createdAt,value
2018-06-22T00:02:58.329Z,15.10
2018-06-22T00:06:01.287Z,15.30
2018-06-22T00:09:07.365Z,15.60
2018-06-22T00:12:10.290Z,15.70
2018-06-22T00:15:13.236Z,15.60
2018-06-22T00:18:16.187Z,15.90
2018-06-22T00:21:19.101Z,15.70
2018-06-22T00:24:22.042Z,15.70
2018-06-22T00:27:25.016Z,15.60
2018-06-22T00:30:28.038Z,15.50
2018-06-22T00:33:30.962Z,15.60
2018-06-22T00:36:33.933Z,15.60
2018-06-22T00:42:39.773Z,15.60
2018-06-22T00:45:49.446Z,15.60
2018-06-22T00:48:52.350Z,15.80
2018-06-22T00:51:55.272Z,15.80
2018-06-22T00:54:58.224Z,15.80
2018-06-22T00:58:01.123Z,15.90
2018-06-22T01:01:04.030Z,15.70
2018-06-22T01:04:07.242Z,15.30
2018-06-22T01:07:10.155Z,15.50
2018-06-22T01:10:13.133Z,15.60
2018-06-22T01:13:16.037Z,15.40
2018-06-22T01:16:18.957Z,15.50
2018-06-22T01:19:21.877Z,15.40
2018-06-22T01:22:25.119Z,15.60
2018-06-22T01:25:28.035Z,15.80
2018-06-22T01:28:30.976Z,15.60
2018-06-22T01:31:33.880Z,15.70
2018-06-22T01:34:36.822Z,15.90
2018-06-22T01:37:39.765Z,15.60
2018-06-22T01:40:42.716Z,15.40
2018-06-22T01:43:46.635Z,15.30
2018-06-22T01:46:50.392Z,15.20
2018-06-22T01:49:53.356Z,15.30
2018-06-22T01:52:56.247Z,15.30
2018-06-22T01:55:59.225Z,15.40
2018-06-22T01:59:02.189Z,15.50
2018-06-22T02:02:05.209Z,15.50
2018-06-22T02:05:08.166Z,15.40
2018-06-22T02:08:11.092Z,15.30
2018-06-22T02:11:14.055Z,15.10
2018-06-22T02:14:16.953Z,15.10
2018-06-22T02:17:19.846Z,15.10
2018-06-22T02:20:22.761Z,15.10
2018-06-22T02:23:25.731Z,15.00
2018-06-22T02:29:31.556Z,15.00
2018-06-22T02:32:34.503Z,15.20
2018-06-22T02:35:37.414Z,15.20
2018-06-22T02:38:40.330Z,15.20
2018-06-22T02:41:43.283Z,15.20
2018-06-22T02:44:46.288Z,15.30
2018-06-22T02:47:49.230Z,15.40
2018-06-22T02:50:52.165Z,15.40
2018-06-22T02:53:55.078Z,15.00
2018-06-22T02:56:58.009Z,15.10
2018-06-22T03:00:03.982Z,15.10
2018-06-22T03:03:06.935Z,15.00
2018-06-22T03:06:10.183Z,15.00
2018-06-22T03:09:13.186Z,15.00
2018-06-22T03:12:16.134Z,14.70
2018-06-22T03:15:19.123Z,14.90
2018-06-22T03:18:22.049Z,14.80
2018-06-22T03:21:25.018Z,14.60
2018-06-22T03:24:27.948Z,14.50
2018-06-22T03:27:30.873Z,14.30
2018-06-22T03:30:33.782Z,14.60
2018-06-22T03:33:36.736Z,14.60
2018-06-22T03:36:39.680Z,14.40
2018-06-22T03:39:42.845Z,14.50
2018-06-22T03:42:45.785Z,14.50
2018-06-22T03:45:48.698Z,14.60
2018-06-22T03:48:51.646Z,14.40
2018-06-22T03:51:54.549Z,14.40
2018-06-22T03:54:57.502Z,14.50
2018-06-22T04:05:34.835Z,14.40
2018-06-22T04:08:37.738Z,14.40
2018-06-22T04:11:40.685Z,14.30
2018-06-22T04:14:43.632Z,14.30
2018-06-22T04:17:51.611Z,14.50
2018-06-22T04:20:54.522Z,14.30
2018-06-22T04:23:57.455Z,14.40
2018-06-22T04:27:00.405Z,14.50
2018-06-22T04:30:03.444Z,14.30
2018-06-22T04:33:06.375Z,14.40
2018-06-22T04:36:09.322Z,14.60
2018-06-22T04:39:13.000Z,14.50
2018-06-22T04:42:15.910Z,14.50
2018-06-22T04:45:18.811Z,14.40
2018-06-22T04:48:21.725Z,14.30
2018-06-22T04:51:24.638Z,14.30
2018-06-22T04:54:27.533Z,14.50
2018-06-22T04:57:30.486Z,14.60
2018-06-22T05:00:33.398Z,14.60
2018-06-22T05:03:36.394Z,14.60
2018-06-22T05:06:39.326Z,14.50
2018-06-22T05:09:42.359Z,14.50
2018-06-22T05:12:45.330Z,14.70
2018-06-22T05:15:48.316Z,14.60
2018-06-22T05:18:51.224Z,14.60
2018-06-22T05:21:54.176Z,14.60
2018-06-22T05:24:57.080Z,14.60
2018-06-22T05:28:00.032Z,14.40
2018-06-22T05:31:03.002Z,14.40
2018-06-22T05:34:05.973Z,14.50
2018-06-22T05:37:08.925Z,14.40
2018-06-22T05:40:11.885Z,14.40
2018-06-22T05:43:14.815Z,14.40
2018-06-22T05:46:17.753Z,14.30
2018-06-22T05:49:20.726Z,14.30
2018-06-22T05:52:23.684Z,14.50
2018-06-22T05:55:26.602Z,14.30
2018-06-22T05:58:29.523Z,14.30
2018-06-22T06:04:35.383Z,14.20
2018-06-22T06:07:38.326Z,14.30
2018-06-22T06:10:41.277Z,14.30
2018-06-22T06:13:44.229Z,14.20
2018-06-22T06:16:47.177Z,14.30
2018-06-22T06:19:50.253Z,14.40
2018-06-22T06:22:53.199Z,14.20
2018-06-22T06:25:56.158Z,14.30
2018-06-22T06:28:59.540Z,14.20
2018-06-22T06:32:02.537Z,14.30
2018-06-22T06:35:05.446Z,14.40
2018-06-22T06:38:08.412Z,14.40
2018-06-22T06:41:11.358Z,14.30
2018-06-22T06:44:14.305Z,14.30
2018-06-22T06:47:17.268Z,14.30
2018-06-22T06:50:20.282Z,14.20
2018-06-22T06:53:23.185Z,14.30
2018-06-22T06:56:26.126Z,14.20
2018-06-22T06:59:29.060Z,14.30
2018-06-22T07:02:31.980Z,14.40
2018-06-22T07:05:34.949Z,14.30
2018-06-22T07:08:38.060Z,14.40
2018-06-22T07:11:41.019Z,14.20
2018-06-22T07:14:44.015Z,14.20
2018-06-22T07:17:46.935Z,14.30
2018-06-22T07:23:52.772Z,14.60
2018-06-22T07:26:55.705Z,14.60
2018-06-22T07:29:58.645Z,14.60
2018-06-22T07:36:04.554Z,14.60
2018-06-22T07:39:09.729Z,14.80
2018-06-22T07:42:12.689Z,14.50
2018-06-22T07:45:15.714Z,14.30
2018-06-22T07:48:18.672Z,14.10
2018-06-22T07:51:21.640Z,14.50
2018-06-22T07:54:24.600Z,14.90
2018-06-22T07:57:27.554Z,14.60
2018-06-22T08:00:30.499Z,14.70
2018-06-22T08:03:33.444Z,14.50
2018-06-22T08:06:36.385Z,14.40
2018-06-22T08:09:39.319Z,14.20
2018-06-22T08:12:42.275Z,14.20
2018-06-22T08:15:45.215Z,14.00
2018-06-22T08:18:48.226Z,14.20
2018-06-22T08:21:51.156Z,14.30
2018-06-22T08:24:54.266Z,14.30
2018-06-22T08:27:57.219Z,13.90
2018-06-22T08:31:00.158Z,14.10
2018-06-22T08:34:03.148Z,14.00
2018-06-22T08:37:06.157Z,14.10
2018-06-22T08:40:09.105Z,14.00
2018-06-22T08:43:12.081Z,14.20
2018-06-22T08:46:15.094Z,14.40
2018-06-22T08:49:18.057Z,14.50
2018-06-22T08:52:21.258Z,14.50
2018-06-22T08:55:24.280Z,14.60
2018-06-22T08:58:27.241Z,14.60
2018-06-22T09:01:30.205Z,14.80
2018-06-22T09:04:33.149Z,14.80
2018-06-22T09:07:36.082Z,14.80
2018-06-22T09:10:39.019Z,14.90
2018-06-22T09:13:41.982Z,15.10
2018-06-22T09:16:44.905Z,15.20
2018-06-22T09:19:47.822Z,15.40
2018-06-22T09:22:50.727Z,15.40
2018-06-22T09:25:53.684Z,15.50
2018-06-22T09:28:56.594Z,15.50
2018-06-22T09:31:59.534Z,15.50
2018-06-22T09:35:02.783Z,15.50
2018-06-22T09:38:05.727Z,15.40
2018-06-22T09:41:08.650Z,15.40
2018-06-22T09:44:28.877Z,15.40
2018-06-22T09:47:31.809Z,15.30
2018-06-22T09:50:34.862Z,15.10
2018-06-22T09:53:37.773Z,15.10
2018-06-22T09:56:40.722Z,15.20
2018-06-22T09:59:43.633Z,15.20
2018-06-22T10:02:47.652Z,15.20
2018-06-22T10:05:50.680Z,15.00
2018-06-22T10:08:53.564Z,14.90
2018-06-22T10:11:56.467Z,14.80
2018-06-22T10:14:59.398Z,14.80
2018-06-22T10:18:02.403Z,15.00
2018-06-22T10:21:05.584Z,15.10
2018-06-22T10:24:08.803Z,15.20
2018-06-22T10:30:14.620Z,15.50
2018-06-22T10:33:17.975Z,15.80
2018-06-22T10:36:20.899Z,15.90
2018-06-22T10:39:23.870Z,16.20
2018-06-22T10:42:26.854Z,16.20
2018-06-22T10:45:29.909Z,16.30
2018-06-22T10:48:33.803Z,16.20
2018-06-22T10:51:36.848Z,15.70
2018-06-22T10:54:39.729Z,15.20
2018-06-22T10:57:42.730Z,15.20
2018-06-22T11:00:45.733Z,15.40
2018-06-22T11:03:48.645Z,15.70
2018-06-22T11:06:51.655Z,15.90
2018-06-22T11:09:54.685Z,16.10
2018-06-22T11:12:57.597Z,16.20
2018-06-22T11:16:00.532Z,16.10
2018-06-22T11:19:04.063Z,16.00
2018-06-22T11:22:07.064Z,15.90
2018-06-22T11:25:09.979Z,15.60
2018-06-22T11:28:12.959Z,15.60
2018-06-22T11:31:15.922Z,15.70
2018-06-22T11:34:18.868Z,16.50
2018-06-22T11:37:21.765Z,16.80
2018-06-22T11:40:24.727Z,16.60
2018-06-22T11:43:27.934Z,16.30
2018-06-22T11:46:31.000Z,16.00
2018-06-22T11:49:33.909Z,15.90
2018-06-22T11:52:36.946Z,15.80
2018-06-22T11:55:40.129Z,15.80
2018-06-22T11:58:43.090Z,15.90
2018-06-22T12:01:46.101Z,16.20
2018-06-22T12:04:49.011Z,16.30
2018-06-22T12:07:51.985Z,16.50
2018-06-22T12:10:55.022Z,16.80
2018-06-22T12:13:58.153Z,16.90
2018-06-22T12:17:01.141Z,16.80
2018-06-22T12:20:04.149Z,16.40
2018-06-22T12:23:07.076Z,16.20
2018-06-22T12:26:10.030Z,16.20
2018-06-22T12:29:12.980Z,16.30
2018-06-22T12:32:15.960Z,16.30
2018-06-22T12:35:18.894Z,16.90
2018-06-22T12:38:21.916Z,17.20
2018-06-22T12:41:25.050Z,17.50
2018-06-22T12:44:28.356Z,17.20
2018-06-22T12:47:31.726Z,17.40
2018-06-22T12:50:34.694Z,17.70
2018-06-22T12:53:37.606Z,18.10
2018-06-22T12:56:40.502Z,18.20
2018-06-22T12:59:43.412Z,18.40
2018-06-22T13:02:46.342Z,18.20
2018-06-22T13:05:49.274Z,18.50
2018-06-22T13:08:52.240Z,18.90
2018-06-22T13:11:55.233Z,18.70
2018-06-22T13:14:59.377Z,18.50
2018-06-22T13:18:02.341Z,18.00
2018-06-22T13:21:05.353Z,17.60
2018-06-22T13:24:08.329Z,17.50
2018-06-22T13:27:11.246Z,17.30
2018-06-22T13:30:14.215Z,17.10
2018-06-22T13:33:17.185Z,16.90
2018-06-22T13:36:20.157Z,16.70
2018-06-22T13:39:23.108Z,16.50
2018-06-22T13:42:26.015Z,16.50
2018-06-22T13:45:29.042Z,16.60
2018-06-22T13:51:35.476Z,16.30
2018-06-22T13:54:38.432Z,16.20
2018-06-22T13:57:41.419Z,16.20
2018-06-22T14:00:44.347Z,16.30
2018-06-22T14:03:52.985Z,16.80
2018-06-22T14:06:56.366Z,17.20
2018-06-22T14:09:59.331Z,17.10
2018-06-22T14:13:02.418Z,17.00
2018-06-22T14:16:05.520Z,16.90
2018-06-22T14:19:08.618Z,16.80
2018-06-22T14:22:11.605Z,16.70
2018-06-22T14:25:14.584Z,16.60
2018-06-22T14:28:17.516Z,16.50
2018-06-22T14:31:20.623Z,16.80
2018-06-22T14:34:23.624Z,18.30
2018-06-22T14:37:26.566Z,17.90
2018-06-22T14:40:29.509Z,17.50
2018-06-22T14:43:32.480Z,17.50
2018-06-22T14:46:35.414Z,17.30
2018-06-22T14:49:38.395Z,17.10
2018-06-22T14:52:41.412Z,17.00
2018-06-22T14:55:50.124Z,16.90
2018-06-22T14:58:58.646Z,17.00
2018-06-22T15:02:07.642Z,17.10
2018-06-22T15:05:16.208Z,17.50
2018-06-22T15:08:20.921Z,18.00
2018-06-22T15:11:23.940Z,18.40
2018-06-22T15:14:26.896Z,18.60
2018-06-22T15:17:34.386Z,18.70
2018-06-22T15:20:37.316Z,18.60
2018-06-22T15:23:40.226Z,18.80
2018-06-22T15:26:43.153Z,18.50
2018-06-22T15:29:46.136Z,18.40
2018-06-22T15:36:58.432Z,17.70
2018-06-22T15:40:07.198Z,17.50
2018-06-22T15:46:24.581Z,17.40
2018-06-22T15:49:33.192Z,17.60
2018-06-22T15:52:41.965Z,17.80
2018-06-22T15:55:46.258Z,18.00
2018-06-22T15:58:49.263Z,18.20
2018-06-22T16:01:52.259Z,18.20
2018-06-22T16:04:55.178Z,18.00
2018-06-22T16:07:58.090Z,17.90
2018-06-22T16:11:01.026Z,17.80
2018-06-22T16:17:18.978Z,17.80
2018-06-22T16:20:27.732Z,17.80
2018-06-22T16:23:36.345Z,17.80
2018-06-22T16:26:44.985Z,17.80
2018-06-22T16:29:47.892Z,17.80
2018-06-22T16:32:50.878Z,17.80
2018-06-22T16:35:53.899Z,17.70
2018-06-22T16:38:57.003Z,17.60
2018-06-22T16:41:59.960Z,17.60
2018-06-22T16:45:02.902Z,17.50
2018-06-22T16:48:05.873Z,17.40
2018-06-22T16:51:08.824Z,17.50
2018-06-22T16:54:11.744Z,17.60
2018-06-22T16:57:16.089Z,17.60
2018-06-22T17:00:19.132Z,17.60
2018-06-22T17:03:22.060Z,17.50
2018-06-22T17:06:25.041Z,17.50
2018-06-22T17:09:33.596Z,17.40
2018-06-22T17:12:42.229Z,17.30
2018-06-22T17:15:51.033Z,17.30
2018-06-22T17:18:56.452Z,17.30
2018-06-22T17:21:59.404Z,17.50
2018-06-22T17:25:02.365Z,17.40
2018-06-22T17:28:05.478Z,17.30
2018-06-22T17:31:08.837Z,17.20
2018-06-22T17:34:11.729Z,17.20
2018-06-22T17:37:15.010Z,17.30
2018-06-22T17:40:17.931Z,17.40
2018-06-22T17:43:20.937Z,17.30
2018-06-22T17:46:23.932Z,17.10
2018-06-22T17:49:26.825Z,17.00
2018-06-22T17:55:32.773Z,16.90
2018-06-22T17:58:35.709Z,16.90
2018-06-22T18:01:44.404Z,16.90
2018-06-22T18:04:53.455Z,16.90
2018-06-22T18:07:56.359Z,17.00
2018-06-22T18:11:04.982Z,16.90
2018-06-22T18:14:07.898Z,16.80
2018-06-22T18:17:10.855Z,16.80
2018-06-22T18:20:14.084Z,16.60
2018-06-22T18:23:17.059Z,16.60
2018-06-22T18:26:20.093Z,16.60
2018-06-22T18:29:23.081Z,16.70
2018-06-22T18:32:26.066Z,16.60
2018-06-22T18:35:29.053Z,16.50
2018-06-22T18:38:31.985Z,16.50
2018-06-22T18:44:37.928Z,16.50
2018-06-22T18:47:41.649Z,16.50
2018-06-22T18:50:44.584Z,16.50
2018-06-22T18:53:53.340Z,16.60
2018-06-22T18:57:01.997Z,16.50
2018-06-22T19:00:10.961Z,16.50
2018-06-22T19:03:19.485Z,16.50
2018-06-22T19:06:22.447Z,16.50
2018-06-22T19:09:25.374Z,16.50
2018-06-22T19:12:28.331Z,16.40
2018-06-22T19:15:31.241Z,16.30
2018-06-22T19:18:35.223Z,16.30
2018-06-22T19:21:38.279Z,16.20
2018-06-22T19:24:41.162Z,16.20
2018-06-22T19:27:44.090Z,16.10
2018-06-22T19:30:48.291Z,16.10
2018-06-22T19:44:34.828Z,16.00
2018-06-22T19:47:45.180Z,16.20
2018-06-22T19:50:55.529Z,16.20
2018-06-22T19:54:02.998Z,16.10
2018-06-22T19:57:07.269Z,16.10
2018-06-22T20:00:12.035Z,16.10
2018-06-22T20:03:16.145Z,16.10
2018-06-22T20:06:20.656Z,16.10
2018-06-22T20:09:24.709Z,16.10
2018-06-22T20:12:28.417Z,16.00
2018-06-22T20:15:32.424Z,16.00
2018-06-22T20:18:36.360Z,16.00
2018-06-22T20:21:40.137Z,16.00
2018-06-22T20:24:48.740Z,16.00
2018-06-22T20:27:52.602Z,15.90
2018-06-22T20:30:55.508Z,17.40
2018-06-22T20:34:03.885Z,19.00
2018-06-22T20:37:12.389Z,18.20
2018-06-22T20:40:21.378Z,17.30
2018-06-22T20:45:33.048Z,16.50
2018-06-22T20:48:42.376Z,16.10
2018-06-22T20:51:57.796Z,16.00
2018-06-22T20:55:00.791Z,16.00
2018-06-22T20:58:03.916Z,15.90
2018-06-22T21:01:06.903Z,15.90
2018-06-22T21:04:10.364Z,15.80
2018-06-22T21:07:13.391Z,15.70
2018-06-22T21:13:19.321Z,15.80
2018-06-22T21:16:22.225Z,15.80
2018-06-22T21:19:25.163Z,15.70
2018-06-22T21:22:28.222Z,15.70
2018-06-22T21:25:31.156Z,15.70
2018-06-22T21:28:39.848Z,15.50
2018-06-22T21:31:48.453Z,15.40
2018-06-22T21:34:56.958Z,15.50
2018-06-22T21:38:05.529Z,15.40
2018-06-22T21:41:08.488Z,15.50
2018-06-22T21:44:11.425Z,15.50
2018-06-22T21:47:14.369Z,15.50
2018-06-22T21:50:17.311Z,15.30
2018-06-22T21:53:20.249Z,15.30
2018-06-22T21:56:23.617Z,15.30
2018-06-22T21:59:26.539Z,15.30
2018-06-22T22:02:29.482Z,15.30
2018-06-22T22:05:32.420Z,15.40
2018-06-22T22:11:56.197Z,15.40
2018-06-22T22:14:59.090Z,15.40
2018-06-22T22:18:02.080Z,15.40
2018-06-22T22:21:05.145Z,15.30
2018-06-22T22:24:08.105Z,15.30
2018-06-22T22:27:11.026Z,15.30
2018-06-22T22:30:13.954Z,15.30
2018-06-22T22:33:16.853Z,15.20
2018-06-22T22:36:19.805Z,15.20
2018-06-22T22:39:22.758Z,15.20
2018-06-22T22:42:25.705Z,15.40
2018-06-22T22:45:28.624Z,15.40
2018-06-22T22:48:31.514Z,15.40
2018-06-22T22:51:34.454Z,15.30
2018-06-22T22:54:37.381Z,15.30
2018-06-22T22:57:40.309Z,15.20
2018-06-22T23:00:43.265Z,15.20
2018-06-22T23:03:46.197Z,15.20
2018-06-22T23:06:49.137Z,15.20
2018-06-22T23:09:52.037Z,15.10
2018-06-22T23:12:54.977Z,15.20
2018-06-22T23:15:57.941Z,15.30
2018-06-22T23:19:00.896Z,15.30
2018-06-22T23:22:03.896Z,15.30
2018-06-22T23:25:06.860Z,15.10
2018-06-22T23:28:09.781Z,15.10
2018-06-22T23:31:12.732Z,15.10
2018-06-22T23:34:15.685Z,15.00
2018-06-22T23:37:18.649Z,15.20
2018-06-22T23:40:21.538Z,15.20
2018-06-22T23:43:24.769Z,15.20
2018-06-22T23:46:27.665Z,15.20
2018-06-22T23:49:30.593Z,15.10
2018-06-22T23:52:33.513Z,15.20
2018-06-22T23:55:36.482Z,15.20
2018-06-22T23:58:39.388Z,15.20
